Time;durP1;ratioP1;P1;durP2;ratioP2;P2;SDS_P1;SDS_P2;PMS_P1;PMS_P2;Temp;Humidity;BMP_temperature;BMP_pressure;BME280_temperature;BME280_humidity;BME280_pressure;Samples;Min_cycle;Max_cycle;Signal;HPM_P1;HPM_P2
2023/03/19 00:00:08;;;;;;;9.88;8.43;;;;;;;7.42;87.89;95716.91;4952952;28;20521;-68
2023/03/19 00:02:35;;;;;;;14.20;8.48;;;;;;;7.37;88.38;95717.25;4955657;28;20431;-67
2023/03/19 00:05:01;;;;;;;12.32;7.97;;;;;;;7.38;87.86;95718.91;4955269;28;20156;-69
2023/03/19 00:07:27;;;;;;;11.63;7.15;;;;;;;7.39;86.85;95720.59;4954473;28;20200;-66
2023/03/19 00:09:52;;;;;;;8.98;8.07;;;;;;;7.39;87.06;95731.06;4938413;29;20241;-67
2023/03/19 00:12:17;;;;;;;11.45;8.20;;;;;;;7.37;88.55;95729.53;4953402;28;20035;-68
2023/03/19 00:14:43;;;;;;;10.45;7.50;;;;;;;7.36;87.51;95728.69;4949968;28;20188;-67
2023/03/19 00:17:08;;;;;;;8.93;7.45;;;;;;;7.38;86.70;95737.25;4953092;28;20043;-68
2023/03/19 00:19:34;;;;;;;8.50;6.97;;;;;;;7.39;88.36;95741.53;4937695;29;20062;-68
2023/03/19 00:21:59;;;;;;;8.80;7.57;;;;;;;7.36;87.76;95731.31;4954512;28;20041;-68
2023/03/19 00:24:25;;;;;;;10.75;8.15;;;;;;;7.36;86.52;95738.34;4952953;28;20028;-67
2023/03/19 00:26:50;;;;;;;43.90;30.92;;;;;;;7.31;86.26;95739.56;4948749;28;20039;-67
2023/03/19 00:29:16;;;;;;;44.95;30.25;;;;;;;7.29;86.30;95732.75;4952449;28;20098;-67
2023/03/19 00:31:42;;;;;;;38.42;27.13;;;;;;;7.24;86.94;95737.53;4947140;28;20031;-67
2023/03/19 00:34:08;;;;;;;45.20;30.67;;;;;;;7.17;88.34;95738.00;4953218;28;20114;-67
2023/03/19 00:36:35;;;;;;;41.30;29.35;;;;;;;7.09;88.13;95729.09;4927530;29;20032;-67
2023/03/19 00:39:00;;;;;;;28.63;20.35;;;;;;;7.00;89.08;95734.06;4949453;28;20118;-67
2023/03/19 00:41:26;;;;;;;25.27;17.83;;;;;;;6.93;88.79;95737.28;4950008;28;20103;-67
2023/03/19 00:43:56;;;;;;;18.20;14.20;;;;;;;6.85;88.93;95743.94;4952962;28;20087;-67
2023/03/19 00:46:22;;;;;;;22.80;16.42;;;;;;;6.81;88.86;95739.06;4949175;28;20086;-67
2023/03/19 00:48:47;;;;;;;20.65;17.05;;;;;;;6.82;88.92;95743.34;4952556;28;20038;-67
2023/03/19 00:51:13;;;;;;;22.58;15.85;;;;;;;6.79;89.13;95741.81;4955601;28;20106;-67
2023/03/19 00:53:40;;;;;;;23.88;16.88;;;;;;;6.69;90.06;95741.66;4957099;28;20030;-67
2023/03/19 00:56:07;;;;;;;22.63;17.58;;;;;;;6.62;90.83;95737.00;4961752;28;20038;-67
2023/03/19 00:58:33;;;;;;;19.38;15.77;;;;;;;6.52;91.29;95748.19;4957734;28;20015;-67
2023/03/19 01:00:59;;;;;;;20.58;14.77;;;;;;;6.48;91.13;95738.88;4957380;28;20047;-67
2023/03/19 01:03:25;;;;;;;18.05;13.63;;;;;;;6.41;91.28;95748.16;4957497;28;20043;-67
2023/03/19 01:05:50;;;;;;;15.05;11.10;;;;;;;6.32;91.64;95743.63;4957173;28;20853;-67
2023/03/19 01:08:16;;;;;;;10.90;9.75;;;;;;;6.27;91.29;95744.75;4956261;29;20469;-67
2023/03/19 01:10:43;;;;;;;12.27;9.73;;;;;;;6.25;91.70;95741.44;4958579;28;20031;-67
2023/03/19 01:13:08;;;;;;;11.15;9.00;;;;;;;6.21;91.00;95740.00;4958350;28;20035;-67
2023/03/19 01:15:38;;;;;;;21.60;14.23;;;;;;;6.22;90.46;95746.91;4959021;28;20035;-66
2023/03/19 01:18:04;;;;;;;19.52;15.50;;;;;;;6.20;90.48;95748.78;4958976;29;20102;-67
2023/03/19 01:20:30;;;;;;;23.58;13.95;;;;;;;6.18;90.51;95744.59;4959059;28;20082;-67
2023/03/19 01:22:55;;;;;;;16.40;11.73;;;;;;;6.15;90.90;95745.69;4959362;28;20027;-67
2023/03/19 01:25:21;;;;;;;16.48;12.73;;;;;;;6.06;91.72;95735.88;4959583;28;20113;-67
2023/03/19 01:27:46;;;;;;;14.40;11.20;;;;;;;5.98;91.35;95739.88;4957732;28;20403;-67
2023/03/19 01:30:12;;;;;;;21.05;10.98;;;;;;;5.90;92.72;95731.78;4956771;28;20027;-67
2023/03/19 01:32:37;;;;;;;14.35;11.43;;;;;;;5.86;92.35;95733.78;4957098;28;20019;-67
2023/03/19 01:35:03;;;;;;;13.52;10.27;;;;;;;5.81;92.62;95733.28;4957574;28;20468;-67
2023/03/19 01:37:29;;;;;;;15.77;9.50;;;;;;;5.77;92.85;95742.28;4960450;28;20015;-67
2023/03/19 01:39:54;;;;;;;12.40;9.82;;;;;;;5.71;93.18;95732.25;4957859;28;20050;-67
2023/03/19 01:42:20;;;;;;;13.45;10.18;;;;;;;5.68;92.64;95730.72;4957708;29;20043;-67
2023/03/19 01:44:45;;;;;;;11.85;8.88;;;;;;;5.63;93.47;95735.41;4956952;28;20477;-67
2023/03/19 01:47:27;;;;;;;14.10;9.85;;;;;;;5.59;93.68;95732.22;4957614;28;20475;-67
2023/03/19 01:49:54;;;;;;;9.48;8.48;;;;;;;5.54;94.00;95728.25;4948660;28;20031;-67
2023/03/19 01:52:22;;;;;;;11.27;8.63;;;;;;;5.48;94.38;95733.94;4957771;28;20102;-67
2023/03/19 01:54:48;;;;;;;9.25;6.57;;;;;;;5.40;93.80;95724.84;4958318;28;20744;-67
2023/03/19 01:57:15;;;;;;;6.85;6.15;;;;;;;5.37;93.58;95725.06;4956112;28;20027;-67
2023/03/19 01:59:51;;;;;;;7.53;6.25;;;;;;;5.39;92.62;95719.75;4956892;28;20043;-67
2023/03/19 02:02:29;;;;;;;8.38;6.47;;;;;;;5.43;92.75;95719.44;4953505;28;20023;-67
2023/03/19 02:05:07;;;;;;;10.45;6.07;;;;;;;5.40;92.95;95721.41;4956248;28;20026;-67
2023/03/19 02:07:34;;;;;;;6.97;6.05;;;;;;;5.37;93.33;95719.03;4957080;28;20063;-67
2023/03/19 02:10:02;;;;;;;11.02;6.15;;;;;;;5.33;93.96;95718.41;4956982;28;20067;-67
2023/03/19 02:12:28;;;;;;;7.10;6.38;;;;;;;5.28;93.49;95718.72;4958357;29;20106;-66
2023/03/19 02:14:53;;;;;;;8.65;6.00;;;;;;;5.29;92.70;95716.97;4957363;28;20061;-67
2023/03/19 02:17:20;;;;;;;7.47;6.13;;;;;;;5.28;93.37;95715.28;4956365;28;20042;-65
2023/03/19 02:20:00;;;;;;;8.77;6.53;;;;;;;5.19;94.67;95722.00;4955845;28;20579;-65
2023/03/19 02:22:29;;;;;;;6.97;6.28;;;;;;;5.13;94.49;95720.63;4954638;28;20031;-65
2023/03/19 02:25:17;;;;;;;7.20;6.28;;;;;;;5.13;95.24;95722.44;4956665;28;20030;-66
2023/03/19 02:27:43;;;;;;;10.70;6.57;;;;;;;5.12;94.99;95728.59;4953478;28;20023;-65
2023/03/19 02:30:26;;;;;;;6.40;5.75;;;;;;;5.07;95.47;95730.66;4957248;28;20023;-65
2023/03/19 02:32:51;;;;;;;6.55;5.93;;;;;;;5.09;94.39;95729.63;4955596;28;20028;-66
2023/03/19 02:35:17;;;;;;;6.65;5.95;;;;;;;5.08;95.20;95725.34;4955728;28;20026;-65
2023/03/19 02:37:43;;;;;;;6.63;5.63;;;;;;;5.06;95.65;95719.41;4957434;28;20038;-66
2023/03/19 02:40:15;;;;;;;9.02;6.00;;;;;;;5.01;94.99;95727.56;4932990;28;20983;-65
2023/03/19 02:42:41;;;;;;;12.00;7.30;;;;;;;4.94;95.60;95720.25;4954412;28;20019;-66
2023/03/19 02:45:07;;;;;;;8.80;6.55;;;;;;;4.94;95.49;95728.06;4955139;28;20022;-65
2023/03/19 02:47:33;;;;;;;7.03;6.43;;;;;;;4.96;96.09;95726.19;4956796;29;20110;-66
2023/03/19 02:49:58;;;;;;;7.05;5.93;;;;;;;4.95;95.96;95730.59;4953343;28;20058;-65
2023/03/19 02:52:24;;;;;;;7.53;6.03;;;;;;;4.92;96.75;95735.19;4957317;28;20040;-65
2023/03/19 02:54:49;;;;;;;7.35;6.53;;;;;;;4.97;95.55;95738.28;4954371;28;20030;-66
2023/03/19 02:57:15;;;;;;;9.07;6.25;;;;;;;5.02;94.99;95746.66;4934001;29;20514;-66
2023/03/19 02:59:40;;;;;;;8.02;6.70;;;;;;;5.08;95.50;95735.78;4956356;28;20083;-65
2023/03/19 03:02:07;;;;;;;9.68;6.85;;;;;;;5.16;94.83;95737.88;4954978;28;20074;-66
2023/03/19 03:04:33;;;;;;;8.20;6.93;;;;;;;5.19;95.87;95739.41;4955040;29;20523;-65
2023/03/19 03:06:59;;;;;;;7.45;6.75;;;;;;;5.21;95.55;95741.00;4954981;28;20023;-65
2023/03/19 03:09:26;;;;;;;8.23;6.07;;;;;;;5.21;95.37;95729.72;4954386;28;20127;-65
2023/03/19 03:11:51;;;;;;;7.85;6.60;;;;;;;5.23;95.16;95738.28;4954683;28;20031;-65
2023/03/19 03:14:17;;;;;;;8.77;6.53;;;;;;;5.25;95.21;95733.78;4954286;28;20052;-65
2023/03/19 03:16:43;;;;;;;7.05;6.22;;;;;;;5.26;95.17;95741.50;4955990;28;20027;-65
2023/03/19 03:19:08;;;;;;;9.02;6.15;;;;;;;5.31;94.95;95741.19;4955131;28;20058;-66
2023/03/19 03:21:34;;;;;;;9.20;6.72;;;;;;;5.32;94.81;95735.00;4956883;29;20035;-65
2023/03/19 03:24:00;;;;;;;6.93;6.18;;;;;;;5.33;95.95;95734.06;4958481;28;20015;-65
2023/03/19 03:26:26;;;;;;;7.07;6.38;;;;;;;5.34;96.99;95738.34;4934620;28;20031;-65
2023/03/19 03:28:51;;;;;;;7.97;6.70;;;;;;;5.38;95.78;95737.19;4954131;28;20035;-66
2023/03/19 03:31:17;;;;;;;8.45;6.20;;;;;;;5.42;94.51;95738.66;4934132;29;20477;-66
2023/03/19 03:33:43;;;;;;;6.47;5.80;;;;;;;5.48;94.29;95736.53;4956218;28;20118;-65
2023/03/19 03:36:09;;;;;;;7.47;6.20;;;;;;;5.50;94.12;95726.81;4954276;28;20174;-65
2023/03/19 03:38:34;;;;;;;6.70;6.00;;;;;;;5.49;94.44;95727.75;4952215;28;20027;-65
2023/03/19 03:41:00;;;;;;;6.07;5.47;;;;;;;5.49;95.13;95722.53;4952095;28;20030;-66
2023/03/19 03:43:25;;;;;;;6.22;5.45;;;;;;;5.48;94.74;95726.91;4930423;28;20050;-67
2023/03/19 03:45:51;;;;;;;9.27;6.60;;;;;;;5.47;94.53;95727.03;4954094;28;20102;-67
2023/03/19 03:48:16;;;;;;;6.93;6.22;;;;;;;5.45;95.01;95719.31;4950738;28;20031;-67
2023/03/19 03:50:42;;;;;;;6.55;6.05;;;;;;;5.44;95.27;95721.09;4956163;29;20050;-67
2023/03/19 03:53:08;;;;;;;9.15;5.53;;;;;;;5.40;96.05;95718.81;4954475;28;20106;-67
2023/03/19 03:55:33;;;;;;;12.13;6.28;;;;;;;5.40;96.55;95722.22;4955235;28;20030;-67
2023/03/19 03:57:59;;;;;;;7.65;6.50;;;;;;;5.37;96.12;95721.63;4955496;28;20031;-67
2023/03/19 04:00:25;;;;;;;9.40;6.32;;;;;;;5.35;96.69;95726.97;4954269;28;20563;-67
2023/03/19 04:02:51;;;;;;;8.07;5.95;;;;;;;5.35;96.22;95718.31;4957718;28;20050;-67
2023/03/19 04:05:17;;;;;;;6.90;5.78;;;;;;;5.38;95.44;95723.31;4952356;28;20019;-67
2023/03/19 04:07:42;;;;;;;6.10;5.53;;;;;;;5.41;95.24;95721.28;4955261;28;20464;-67
2023/03/19 04:10:10;;;;;;;10.65;7.03;;;;;;;5.66;93.97;95724.78;4955534;28;20442;-67
2023/03/19 04:12:37;;;;;;;7.43;5.32;;;;;;;5.68;93.73;95728.13;4955805;28;20030;-67
2023/03/19 04:15:03;;;;;;;8.75;5.30;;;;;;;5.64;93.48;95731.91;4955884;28;20023;-67
2023/03/19 04:17:29;;;;;;;5.80;5.20;;;;;;;5.43;94.99;95729.03;4953746;28;20105;-67
2023/03/19 04:19:54;;;;;;;14.23;7.10;;;;;;;5.30;95.85;95731.69;4954935;28;20069;-67
2023/03/19 04:22:20;;;;;;;8.23;7.40;;;;;;;5.21;97.70;95730.53;4936876;29;20031;-67
2023/03/19 04:24:45;;;;;;;9.20;7.25;;;;;;;5.21;97.35;95727.13;4954815;28;20016;-67
2023/03/19 04:27:10;;;;;;;9.98;8.68;;;;;;;5.20;97.05;95741.94;4955356;28;20034;-67
2023/03/19 04:29:36;;;;;;;8.15;7.25;;;;;;;5.20;96.75;95738.50;4955582;28;20023;-67
2023/03/19 04:32:01;;;;;;;8.25;7.45;;;;;;;5.20;96.58;95736.72;4934512;28;20019;-67
2023/03/19 04:34:27;;;;;;;12.15;7.72;;;;;;;5.18;97.50;95745.56;4953654;28;20020;-67
2023/03/19 04:36:52;;;;;;;12.40;9.57;;;;;;;5.16;97.36;95743.09;4954706;28;20023;-67
2023/03/19 04:39:18;;;;;;;10.30;8.23;;;;;;;5.14;97.45;95750.19;4956213;28;20077;-67
2023/03/19 04:41:44;;;;;;;8.43;7.63;;;;;;;5.11;97.63;95755.63;4954095;28;20035;-67
2023/03/19 04:44:09;;;;;;;8.95;8.05;;;;;;;5.14;97.39;95750.19;4930348;29;20484;-67
2023/03/19 04:46:35;;;;;;;8.68;7.80;;;;;;;5.15;96.98;95759.69;4950906;28;20118;-67
2023/03/19 04:49:00;;;;;;;8.35;7.53;;;;;;;5.18;96.48;95759.47;4955030;28;20488;-67
2023/03/19 04:51:26;;;;;;;8.40;7.63;;;;;;;5.16;97.17;95763.97;4953524;28;20106;-67
2023/03/19 04:53:52;;;;;;;10.38;8.32;;;;;;;5.10;97.60;95765.22;4955000;28;20207;-67
2023/03/19 04:56:17;;;;;;;9.85;7.50;;;;;;;5.10;98.85;95764.41;4952111;28;20087;-67
2023/03/19 04:58:44;;;;;;;9.23;7.13;;;;;;;5.06;98.44;95763.78;4953970;28;20039;-67
2023/03/19 05:01:09;;;;;;;9.73;7.40;;;;;;;5.00;98.03;95765.03;4952277;28;20051;-67
2023/03/19 05:03:35;;;;;;;10.32;7.43;;;;;;;5.04;96.55;95770.88;4955108;28;20555;-67
2023/03/19 05:06:00;;;;;;;10.10;7.97;;;;;;;5.08;96.47;95777.53;4954371;28;20035;-67
2023/03/19 05:08:26;;;;;;;12.48;6.78;;;;;;;5.05;96.79;95780.38;4956548;28;20058;-67
2023/03/19 05:10:52;;;;;;;7.82;6.35;;;;;;;5.04;97.20;95773.50;4950745;28;20148;-66
2023/03/19 05:13:17;;;;;;;7.05;6.32;;;;;;;5.00;99.12;95783.28;4950454;29;20400;-66
2023/03/19 05:15:44;;;;;;;7.47;6.30;;;;;;;4.95;99.57;95774.09;4951865;28;20068;-66
2023/03/19 05:18:09;;;;;;;8.85;6.18;;;;;;;4.95;99.66;95774.94;4951538;28;20046;-67
2023/03/19 05:20:36;;;;;;;11.95;8.32;;;;;;;4.98;99.18;95779.13;4957330;28;20035;-67
2023/03/19 05:23:02;;;;;;;15.52;10.57;;;;;;;5.02;99.09;95783.19;4951691;28;20054;-67
2023/03/19 05:25:28;;;;;;;15.68;11.60;;;;;;;5.05;98.96;95780.38;4953544;28;20400;-67
2023/03/19 05:27:53;;;;;;;23.73;15.40;;;;;;;5.08;98.61;95782.75;4955755;28;20475;-67
2023/03/19 05:30:19;;;;;;;17.95;13.88;;;;;;;5.14;98.31;95781.50;4951864;28;20034;-67
2023/03/19 05:32:45;;;;;;;9.95;8.95;;;;;;;5.24;97.22;95784.31;4956389;28;20122;-67
2023/03/19 05:35:11;;;;;;;8.25;7.45;;;;;;;5.30;96.39;95782.13;4951774;28;20039;-67
2023/03/19 05:37:37;;;;;;;8.80;7.75;;;;;;;5.37;96.49;95786.91;4956228;28;20031;-68
2023/03/19 05:40:03;;;;;;;8.88;7.20;;;;;;;5.30;98.48;95784.75;4957477;28;20027;-67
2023/03/19 05:42:28;;;;;;;12.05;7.78;;;;;;;5.33;97.75;95782.84;4953370;28;20034;-67
2023/03/19 05:44:54;;;;;;;10.90;8.20;;;;;;;5.34;97.96;95795.78;4954815;28;20070;-67
2023/03/19 05:47:20;;;;;;;7.90;7.10;;;;;;;5.30;99.24;95795.19;4957804;28;20031;-67
2023/03/19 05:49:46;;;;;;;14.63;7.82;;;;;;;5.34;98.76;95794.97;4960727;28;20043;-67
2023/03/19 05:52:11;;;;;;;10.40;8.10;;;;;;;5.42;97.74;95801.31;4959252;28;20114;-67
2023/03/19 05:54:37;;;;;;;13.45;9.13;;;;;;;5.59;96.43;95797.50;4958188;28;20086;-67
2023/03/19 05:57:03;;;;;;;8.75;7.07;;;;;;;5.61;96.23;95804.41;4958476;28;20086;-67
2023/03/19 05:59:28;;;;;;;8.77;7.88;;;;;;;5.64;96.83;95812.03;4957130;28;20452;-67
2023/03/19 06:01:54;;;;;;;10.77;8.40;;;;;;;5.71;96.59;95811.47;4956918;28;20058;-67
2023/03/19 06:04:19;;;;;;;7.97;7.10;;;;;;;5.78;96.11;95818.88;4956274;28;20536;-67
2023/03/19 06:06:45;;;;;;;8.05;7.25;;;;;;;5.73;97.50;95813.97;4958451;28;20507;-67
2023/03/19 06:09:10;;;;;;;9.90;6.68;;;;;;;5.84;96.82;95818.44;4951067;28;20039;-67
2023/03/19 06:11:38;;;;;;;7.55;6.45;;;;;;;5.93;95.14;95815.19;4953719;28;20899;-67
2023/03/19 06:14:03;;;;;;;6.75;6.03;;;;;;;6.02;94.34;95819.75;4956836;28;20031;-67
2023/03/19 06:16:29;;;;;;;7.55;5.82;;;;;;;6.04;94.53;95817.03;4955446;28;20027;-67
2023/03/19 06:18:55;;;;;;;6.15;5.55;;;;;;;6.14;94.30;95820.66;4952670;28;20071;-68
2023/03/19 06:21:20;;;;;;;7.57;5.05;;;;;;;6.30;92.00;95827.38;4952548;28;20036;-67
2023/03/19 06:23:46;;;;;;;7.63;5.30;;;;;;;6.38;91.48;95829.44;4957396;28;20027;-67
2023/03/19 06:26:11;;;;;;;5.53;5.03;;;;;;;6.45;91.23;95830.66;4951278;28;20250;-67
2023/03/19 06:28:36;;;;;;;8.45;5.55;;;;;;;6.41;91.13;95831.84;4955204;28;20035;-67
2023/03/19 06:31:02;;;;;;;7.55;4.93;;;;;;;6.48;90.81;95835.66;4958320;28;20082;-67
2023/03/19 06:33:30;;;;;;;8.25;5.57;;;;;;;6.43;92.12;95841.25;4957427;28;20037;-67
2023/03/19 06:35:57;;;;;;;9.13;5.13;;;;;;;6.47;92.72;95839.22;4955731;28;20027;-68
2023/03/19 06:38:22;;;;;;;5.30;4.80;;;;;;;6.49;92.83;95845.16;4955935;28;20027;-68
2023/03/19 06:40:47;;;;;;;6.07;4.80;;;;;;;6.57;91.63;95850.69;4957206;28;20035;-68
2023/03/19 06:43:13;;;;;;;11.07;5.28;;;;;;;6.55;92.15;95854.34;4954557;28;20130;-68
2023/03/19 06:45:38;;;;;;;6.20;4.95;;;;;;;6.63;92.30;95856.41;4957006;28;20122;-68
2023/03/19 06:48:04;;;;;;;6.13;5.50;;;;;;;6.62;93.11;95854.75;4952692;28;20026;-68
2023/03/19 06:50:30;;;;;;;6.93;5.47;;;;;;;6.62;92.41;95860.78;4956933;28;20031;-68
2023/03/19 06:52:55;;;;;;;8.85;6.25;;;;;;;6.87;89.49;95857.19;4957527;28;20023;-68
2023/03/19 06:55:20;;;;;;;8.43;7.07;;;;;;;7.02;88.62;95864.84;4954818;28;20087;-68
2023/03/19 06:57:50;;;;;;;10.55;7.00;;;;;;;7.47;84.76;95860.63;4955005;28;20035;-68
2023/03/19 07:00:17;;;;;;;8.18;6.90;;;;;;;7.72;81.77;95868.25;4957440;28;20059;-67
2023/03/19 07:02:42;;;;;;;8.52;7.05;;;;;;;7.71;81.58;95868.34;4950658;28;20031;-67
2023/03/19 07:05:08;;;;;;;9.20;6.85;;;;;;;7.62;83.00;95864.66;4953893;28;20518;-67
2023/03/19 07:07:33;;;;;;;8.00;7.30;;;;;;;7.47;84.33;95864.06;4955763;28;20039;-66
2023/03/19 07:09:59;;;;;;;7.28;6.15;;;;;;;7.60;84.34;95863.94;4952268;28;20019;-66
2023/03/19 07:12:26;;;;;;;8.10;6.38;;;;;;;7.59;84.14;95871.00;4953939;28;20032;-66
2023/03/19 07:14:54;;;;;;;8.63;6.80;;;;;;;7.61;83.83;95878.72;4957097;28;20023;-66
2023/03/19 07:17:21;;;;;;;7.60;6.55;;;;;;;7.57;84.46;95878.13;4952763;28;20059;-66
2023/03/19 07:19:46;;;;;;;7.18;6.50;;;;;;;7.76;84.21;95878.47;4953285;28;20391;-66
2023/03/19 07:22:11;;;;;;;10.95;7.15;;;;;;;7.73;84.22;95885.63;4952737;28;20062;-66
2023/03/19 07:24:37;;;;;;;9.60;6.70;;;;;;;7.60;86.25;95884.91;4955255;28;20483;-66
2023/03/19 07:27:02;;;;;;;8.75;6.95;;;;;;;7.69;87.28;95884.22;4952778;28;20107;-66
2023/03/19 07:29:28;;;;;;;10.73;6.70;;;;;;;7.83;87.25;95890.16;4951106;28;20031;-66
2023/03/19 07:31:53;;;;;;;11.50;8.20;;;;;;;7.60;88.68;95887.53;4953034;28;20657;-66
2023/03/19 07:34:18;;;;;;;12.88;8.18;;;;;;;7.73;89.06;95890.03;4953785;28;20428;-66
2023/03/19 07:36:44;;;;;;;8.18;6.63;;;;;;;7.54;90.76;95906.34;4952045;28;20061;-66
2023/03/19 07:39:09;;;;;;;9.65;6.63;;;;;;;7.56;90.82;95907.06;4952513;28;20710;-66
2023/03/19 07:41:35;;;;;;;13.05;6.78;;;;;;;7.58;91.37;95910.41;4951581;28;20023;-66
2023/03/19 07:44:00;;;;;;;8.98;6.75;;;;;;;7.55;92.70;95918.50;4952295;28;20016;-66
2023/03/19 07:46:27;;;;;;;7.85;6.80;;;;;;;7.45;93.84;95916.59;4952086;28;20019;-67
2023/03/19 07:48:52;;;;;;;9.48;7.60;;;;;;;7.68;91.97;95916.63;4956406;28;20023;-66
2023/03/19 07:51:18;;;;;;;8.65;7.43;;;;;;;7.61;93.88;95925.88;4953731;28;20516;-67
2023/03/19 07:53:43;;;;;;;10.05;7.53;;;;;;;7.53;95.29;95930.88;4955063;28;20030;-66
2023/03/19 07:56:10;;;;;;;11.75;8.07;;;;;;;7.52;95.48;95923.97;4956247;28;20027;-66
2023/03/19 07:58:35;;;;;;;10.52;7.32;;;;;;;7.53;95.57;95936.13;4957407;28;20035;-67
2023/03/19 08:01:01;;;;;;;8.57;6.72;;;;;;;7.51;96.25;95935.41;4955160;28;20043;-67
2023/03/19 08:03:26;;;;;;;9.38;7.45;;;;;;;7.51;96.98;95932.78;4955411;28;20031;-68
2023/03/19 08:05:52;;;;;;;9.55;7.25;;;;;;;7.58;97.46;95933.97;4954633;28;20114;-66
2023/03/19 08:08:18;;;;;;;7.55;6.63;;;;;;;7.78;95.88;95939.47;4947934;28;20085;-66
2023/03/19 08:10:43;;;;;;;10.10;6.70;;;;;;;7.71;95.77;95949.59;4955326;28;20038;-66
2023/03/19 08:13:08;;;;;;;17.05;10.82;;;;;;;7.81;95.20;95950.56;4954256;28;20042;-66
2023/03/19 08:15:34;;;;;;;10.43;6.97;;;;;;;7.94;94.43;95942.59;4955541;28;20070;-66
2023/03/19 08:18:02;;;;;;;9.13;6.57;;;;;;;8.00;94.66;95944.72;4954470;28;20050;-66
2023/03/19 08:20:27;;;;;;;13.63;7.70;;;;;;;7.85;96.93;95952.00;4953665;28;20042;-68
2023/03/19 08:22:53;;;;;;;9.10;7.00;;;;;;;7.84;96.46;95954.72;4951732;28;20023;-67
2023/03/19 08:25:19;;;;;;;6.60;5.60;;;;;;;7.94;96.71;95949.59;4955015;28;20638;-68
2023/03/19 08:27:44;;;;;;;4.97;4.45;;;;;;;7.96;97.43;95951.16;4948506;28;20036;-67
2023/03/19 08:30:10;;;;;;;7.85;4.00;;;;;;;7.96;99.04;95953.78;4955236;28;20492;-65
2023/03/19 08:32:36;;;;;;;5.38;4.85;;;;;;;7.94;98.43;95954.84;4950333;28;20034;-66
2023/03/19 08:35:03;;;;;;;6.10;4.93;;;;;;;7.93;99.29;95961.03;4951364;28;20715;-65
2023/03/19 08:37:28;;;;;;;6.72;4.70;;;;;;;7.94;100.00;95962.72;4951517;28;20024;-67
2023/03/19 08:39:54;;;;;;;7.88;6.97;;;;;;;7.98;98.76;95972.03;4954087;28;20031;-66
2023/03/19 08:42:20;;;;;;;8.32;6.53;;;;;;;8.02;100.00;95966.41;4955613;28;20050;-66
2023/03/19 08:44:46;;;;;;;11.43;6.18;;;;;;;8.05;100.00;95961.88;4953987;28;20031;-63
2023/03/19 08:47:12;;;;;;;8.88;5.32;;;;;;;8.09;99.35;95968.56;4949518;28;20019;-67
2023/03/19 08:49:38;;;;;;;6.85;5.20;;;;;;;8.11;100.00;95969.28;4953013;28;20027;-67
2023/03/19 08:52:05;;;;;;;7.90;5.45;;;;;;;8.31;99.58;95965.94;4951700;28;20019;-66
2023/03/19 08:54:30;;;;;;;5.18;4.68;;;;;;;8.19;98.21;95973.94;4954130;28;20046;-66
2023/03/19 08:56:56;;;;;;;7.50;4.90;;;;;;;8.11;100.00;95977.97;4945567;28;20031;-66
2023/03/19 08:59:21;;;;;;;5.72;5.22;;;;;;;8.09;100.00;95982.50;4953109;28;21081;-66
2023/03/19 09:01:51;;;;;;;7.15;5.82;;;;;;;8.14;100.00;95976.91;4950604;28;20406;-67
2023/03/19 09:04:17;;;;;;;7.45;6.45;;;;;;;8.17;100.00;95981.91;4949175;28;20023;-66
2023/03/19 09:06:44;;;;;;;9.27;8.35;;;;;;;8.29;100.00;95988.00;4954463;28;20035;-66
2023/03/19 09:09:09;;;;;;;7.45;4.57;;;;;;;8.35;100.00;95984.06;4951461;28;20534;-67
2023/03/19 09:11:35;;;;;;;7.15;5.30;;;;;;;8.16;100.00;95988.13;4953902;28;20027;-66
2023/03/19 09:14:01;;;;;;;7.25;5.03;;;;;;;8.06;100.00;95995.88;4954492;28;20106;-66
2023/03/19 09:16:26;;;;;;;5.82;4.90;;;;;;;8.05;100.00;95993.34;4958472;28;20023;-66
2023/03/19 09:18:52;;;;;;;6.18;4.20;;;;;;;8.07;100.00;95997.53;4962903;28;20027;-66
2023/03/19 09:21:17;;;;;;;4.97;3.45;;;;;;;8.19;99.00;96002.78;4951756;28;20043;-66
2023/03/19 09:23:42;;;;;;;5.07;3.72;;;;;;;8.20;98.71;95991.34;4955842;28;20558;-66
2023/03/19 09:26:08;;;;;;;4.90;3.60;;;;;;;8.22;99.91;95984.19;4958883;28;20074;-67
2023/03/19 09:28:34;;;;;;;5.03;3.67;;;;;;;8.25;99.10;95992.63;4957753;28;20027;-67
2023/03/19 09:31:05;;;;;;;6.85;3.92;;;;;;;8.38;96.31;95992.50;4960027;28;20026;-67
2023/03/19 09:33:31;;;;;;;7.28;4.65;;;;;;;8.40;96.32;95981.91;4955799;28;20411;-67
2023/03/19 09:35:57;;;;;;;5.43;4.30;;;;;;;8.44;96.51;95989.41;4952519;28;20026;-67
2023/03/19 09:38:22;;;;;;;8.07;6.10;;;;;;;8.45;96.75;95990.22;4952005;28;20083;-67
2023/03/19 09:41:02;;;;;;;9.75;6.10;;;;;;;8.43;97.96;95992.16;4955208;28;20127;-68
2023/03/19 09:43:43;;;;;;;4.03;3.50;;;;;;;8.34;95.82;95988.44;4953868;28;20023;-66
2023/03/19 09:46:18;;;;;;;4.15;3.47;;;;;;;8.24;96.92;95990.97;4957426;28;20027;-67
2023/03/19 09:49:22;;;;;;;9.65;4.55;;;;;;;8.23;98.81;95988.47;4954535;28;20044;-67
2023/03/19 09:52:16;;;;;;;5.53;4.15;;;;;;;8.23;99.52;95984.06;4927133;28;21066;-67
2023/03/19 09:54:48;;;;;;;6.07;3.78;;;;;;;8.24;99.57;95983.09;4954100;28;20186;-67
2023/03/19 09:57:16;;;;;;;9.63;4.88;;;;;;;8.22;100.00;95984.19;4957396;28;20114;-67
2023/03/19 09:59:41;;;;;;;6.00;5.22;;;;;;;8.21;100.00;95980.72;4956824;28;20049;-67
2023/03/19 10:02:28;;;;;;;8.63;7.63;;;;;;;8.42;99.31;95986.06;4954395;28;20023;-67
2023/03/19 10:05:05;;;;;;;8.13;7.28;;;;;;;8.44;98.43;95978.91;4950322;28;20050;-67
2023/03/19 10:07:45;;;;;;;5.30;4.80;;;;;;;8.24;99.14;95980.47;4952569;28;20110;-68
2023/03/19 10:10:21;;;;;;;5.97;3.95;;;;;;;8.19;99.49;95973.94;4955462;28;20027;-69
2023/03/19 10:13:02;;;;;;;5.85;5.18;;;;;;;8.16;100.00;95977.63;4954224;28;20035;-69
2023/03/19 10:15:31;;;;;;;5.38;4.32;;;;;;;8.15;100.00;95976.78;4952335;28;20075;-69
2023/03/19 10:18:06;;;;;;;6.95;4.72;;;;;;;8.19;100.00;95977.38;4951232;28;20023;-69
2023/03/19 10:20:31;;;;;;;5.30;3.88;;;;;;;8.25;100.00;95974.28;4953868;28;20019;-69
2023/03/19 10:23:18;;;;;;;4.22;3.83;;;;;;;8.28;99.14;95973.19;4950443;28;20107;-69
2023/03/19 10:25:44;;;;;;;7.32;4.78;;;;;;;8.33;98.68;95981.53;4952705;28;20027;-69
2023/03/19 10:28:17;;;;;;;10.20;5.10;;;;;;;8.45;97.75;95974.47;4957574;28;20027;-69
2023/03/19 10:30:54;;;;;;;7.10;5.97;;;;;;;8.51;97.29;95981.06;4956584;28;20083;-70
2023/03/19 10:33:31;;;;;;;6.95;5.22;;;;;;;8.58;98.62;95977.00;4956956;28;20055;-70
2023/03/19 10:36:02;;;;;;;7.45;6.32;;;;;;;8.63;100.00;95982.72;4956261;28;20109;-69
2023/03/19 10:38:28;;;;;;;8.85;6.53;;;;;;;8.66;100.00;95986.88;4961720;28;20488;-70
2023/03/19 10:41:28;;;;;;;7.95;6.63;;;;;;;8.75;100.00;95988.78;4957607;28;20039;-69
2023/03/19 10:43:58;;;;;;;7.82;6.43;;;;;;;8.80;100.00;95988.41;4931107;28;20049;-69
2023/03/19 10:46:24;;;;;;;13.20;11.95;;;;;;;8.83;100.00;95986.38;4940108;28;20436;-69
2023/03/19 10:48:49;;;;;;;10.85;6.75;;;;;;;8.97;100.00;95987.88;4957644;28;20035;-69
2023/03/19 10:51:21;;;;;;;9.15;6.90;;;;;;;8.91;99.42;95984.91;4957498;28;20094;-69
2023/03/19 10:53:47;;;;;;;8.70;7.80;;;;;;;8.95;99.52;95987.16;4957660;28;20035;-69
2023/03/19 10:56:24;;;;;;;9.02;7.65;;;;;;;8.98;100.00;95980.84;4957465;28;20019;-69
2023/03/19 10:58:56;;;;;;;9.13;8.23;;;;;;;9.08;100.00;95986.19;4954716;28;20392;-69
2023/03/19 11:01:27;;;;;;;8.70;7.72;;;;;;;9.07;100.00;95977.47;4951469;28;20051;-69
2023/03/19 11:04:00;;;;;;;9.63;8.63;;;;;;;8.97;100.00;95979.19;4952340;28;20456;-70
2023/03/19 11:06:37;;;;;;;9.35;8.20;;;;;;;9.03;100.00;95978.66;4957501;28;20027;-69
2023/03/19 11:09:09;;;;;;;10.40;9.30;;;;;;;8.86;100.00;95983.50;4956970;28;20416;-69
2023/03/19 11:12:04;;;;;;;11.15;9.07;;;;;;;8.92;100.00;95976.06;4950208;28;20499;-69
2023/03/19 11:14:39;;;;;;;8.85;7.97;;;;;;;8.83;100.00;95981.13;4956581;28;20039;-68
2023/03/19 11:17:40;;;;;;;8.70;7.90;;;;;;;8.85;100.00;95976.56;4953414;28;20041;-69
2023/03/19 11:20:14;;;;;;;8.95;8.00;;;;;;;9.14;100.00;95978.59;4914110;28;20046;-69
2023/03/19 11:22:40;;;;;;;11.30;8.20;;;;;;;9.30;100.00;95975.56;4954416;28;20078;-69
2023/03/19 11:25:26;;;;;;;8.55;7.72;;;;;;;9.48;100.00;95979.41;4953979;28;20079;-69
2023/03/19 11:28:13;;;;;;;10.40;9.00;;;;;;;9.69;100.00;95977.63;4949816;28;20031;-69
2023/03/19 11:31:05;;;;;;;10.45;7.88;;;;;;;9.73;100.00;95975.56;4953543;28;20034;-69
2023/03/19 11:33:49;;;;;;;9.13;8.07;;;;;;;9.80;99.56;95970.59;4953085;28;20365;-69
2023/03/19 11:36:42;;;;;;;10.50;9.32;;;;;;;9.82;98.69;95966.03;4954023;28;20035;-69
2023/03/19 11:39:29;;;;;;;9.82;8.57;;;;;;;9.84;97.15;95966.78;4953634;28;20122;-69